sensor_id;sensor_type;location;lat;lon;timestamp;temperature;humidity
45012;DHT22;63444;48.148;11.542;2023-05-07T00:00:21;16.40;99.90
45012;DHT22;63444;48.148;11.542;2023-05-07T00:02:48;16.40;99.90
45012;DHT22;63444;48.148;11.542;2023-05-07T00:05:13;16.50;99.90
45012;DHT22;63444;48.148;11.542;2023-05-07T00:07:39;16.40;99.90
45012;DHT22;63444;48.148;11.542;2023-05-07T00:10:06;16.40;99.90
45012;DHT22;63444;48.148;11.542;2023-05-07T00:12:32;16.40;99.90
45012;DHT22;63444;48.148;11.542;2023-05-07T00:15:02;16.30;99.90
45012;DHT22;63444;48.148;11.542;2023-05-07T00:17:29;16.30;99.90
45012;DHT22;63444;48.148;11.542;2023-05-07T00:19:54;16.30;99.90
45012;DHT22;63444;48.148;11.542;2023-05-07T00:22:20;16.30;99.90
45012;DHT22;63444;48.148;11.542;2023-05-07T00:24:46;16.30;99.90
45012;DHT22;63444;48.148;11.542;2023-05-07T00:27:12;16.20;99.90
45012;DHT22;63444;48.148;11.542;2023-05-07T00:29:38;16.20;99.90
45012;DHT22;63444;48.148;11.542;2023-05-07T00:32:04;16.20;99.90
45012;DHT22;63444;48.148;11.542;2023-05-07T00:34:29;16.20;99.90
45012;DHT22;63444;48.148;11.542;2023-05-07T00:36:55;16.10;99.90
45012;DHT22;63444;48.148;11.542;2023-05-07T00:39:20;16.10;99.90
45012;DHT22;63444;48.148;11.542;2023-05-07T00:41:46;16.10;99.90
45012;DHT22;63444;48.148;11.542;2023-05-07T00:44:12;16.10;99.90
45012;DHT22;63444;48.148;11.542;2023-05-07T00:46:38;16.00;99.90
45012;DHT22;63444;48.148;11.542;2023-05-07T00:49:04;16.10;99.90
45012;DHT22;63444;48.148;11.542;2023-05-07T00:51:30;16.00;99.90
45012;DHT22;63444;48.148;11.542;2023-05-07T00:53:56;16.00;99.90
45012;DHT22;63444;48.148;11.542;2023-05-07T00:56:22;16.20;99.90
45012;DHT22;63444;48.148;11.542;2023-05-07T00:58:48;16.00;99.90
45012;DHT22;63444;48.148;11.542;2023-05-07T01:01:14;16.00;99.90
45012;DHT22;63444;48.148;11.542;2023-05-07T01:03:42;16.00;99.90
45012;DHT22;63444;48.148;11.542;2023-05-07T01:06:08;16.00;99.90
45012;DHT22;63444;48.148;11.542;2023-05-07T01:08:38;16.00;99.90
45012;DHT22;63444;48.148;11.542;2023-05-07T01:11:06;16.10;99.90
45012;DHT22;63444;48.148;11.542;2023-05-07T01:13:32;15.90;99.90
45012;DHT22;63444;48.148;11.542;2023-05-07T01:15:58;15.90;99.90
45012;DHT22;63444;48.148;11.542;2023-05-07T01:18:24;15.90;99.90
45012;DHT22;63444;48.148;11.542;2023-05-07T01:20:51;15.90;99.90
45012;DHT22;63444;48.148;11.542;2023-05-07T01:23:18;16.00;99.90
45012;DHT22;63444;48.148;11.542;2023-05-07T01:25:51;15.90;99.90
45012;DHT22;63444;48.148;11.542;2023-05-07T01:28:16;15.80;99.90
45012;DHT22;63444;48.148;11.542;2023-05-07T01:30:44;16.00;99.90
45012;DHT22;63444;48.148;11.542;2023-05-07T01:33:14;15.80;99.90
45012;DHT22;63444;48.148;11.542;2023-05-07T01:35:45;15.80;99.90
45012;DHT22;63444;48.148;11.542;2023-05-07T01:38:12;15.80;99.90
45012;DHT22;63444;48.148;11.542;2023-05-07T01:40:38;15.80;99.90
45012;DHT22;63444;48.148;11.542;2023-05-07T01:43:04;15.80;99.90
45012;DHT22;63444;48.148;11.542;2023-05-07T01:45:30;15.80;99.90
45012;DHT22;63444;48.148;11.542;2023-05-07T01:47:58;15.80;99.90
45012;DHT22;63444;48.148;11.542;2023-05-07T01:50:23;15.70;99.90
45012;DHT22;63444;48.148;11.542;2023-05-07T01:52:50;15.70;99.90
45012;DHT22;63444;48.148;11.542;2023-05-07T01:55:16;15.70;99.90
45012;DHT22;63444;48.148;11.542;2023-05-07T01:57:41;15.70;99.90
45012;DHT22;63444;48.148;11.542;2023-05-07T02:00:07;15.70;99.90
45012;DHT22;63444;48.148;11.542;2023-05-07T02:02:34;15.70;99.90
45012;DHT22;63444;48.148;11.542;2023-05-07T02:05:00;15.60;99.90
45012;DHT22;63444;48.148;11.542;2023-05-07T02:07:27;15.60;99.90
45012;DHT22;63444;48.148;11.542;2023-05-07T02:09:53;15.60;99.90
45012;DHT22;63444;48.148;11.542;2023-05-07T02:12:19;15.70;99.90
45012;DHT22;63444;48.148;11.542;2023-05-07T02:14:44;15.50;99.90
45012;DHT22;63444;48.148;11.542;2023-05-07T02:17:10;15.50;99.90
45012;DHT22;63444;48.148;11.542;2023-05-07T02:19:36;15.50;99.90
45012;DHT22;63444;48.148;11.542;2023-05-07T02:22:01;15.40;99.90
45012;DHT22;63444;48.148;11.542;2023-05-07T02:24:27;15.40;99.90
45012;DHT22;63444;48.148;11.542;2023-05-07T02:26:52;15.30;99.90
45012;DHT22;63444;48.148;11.542;2023-05-07T02:29:18;15.30;99.90
45012;DHT22;63444;48.148;11.542;2023-05-07T02:31:43;15.40;99.90
45012;DHT22;63444;48.148;11.542;2023-05-07T02:34:09;15.40;99.90
45012;DHT22;63444;48.148;11.542;2023-05-07T02:36:34;15.30;99.90
45012;DHT22;63444;48.148;11.542;2023-05-07T02:39:00;15.30;99.90
45012;DHT22;63444;48.148;11.542;2023-05-07T02:41:26;15.30;99.90
45012;DHT22;63444;48.148;11.542;2023-05-07T02:43:53;15.30;99.90
45012;DHT22;63444;48.148;11.542;2023-05-07T02:46:18;15.40;99.90
45012;DHT22;63444;48.148;11.542;2023-05-07T02:48:44;15.20;99.90
45012;DHT22;63444;48.148;11.542;2023-05-07T02:51:10;15.10;99.90
45012;DHT22;63444;48.148;11.542;2023-05-07T02:53:35;15.30;99.90
45012;DHT22;63444;48.148;11.542;2023-05-07T02:56:01;15.20;99.90
45012;DHT22;63444;48.148;11.542;2023-05-07T02:58:27;15.00;99.90
45012;DHT22;63444;48.148;11.542;2023-05-07T03:00:53;15.00;99.90
45012;DHT22;63444;48.148;11.542;2023-05-07T03:03:20;15.00;99.90
45012;DHT22;63444;48.148;11.542;2023-05-07T03:05:45;15.00;99.90
45012;DHT22;63444;48.148;11.542;2023-05-07T03:08:11;15.00;99.90
45012;DHT22;63444;48.148;11.542;2023-05-07T03:10:37;15.00;99.90
45012;DHT22;63444;48.148;11.542;2023-05-07T03:13:03;14.90;99.90
45012;DHT22;63444;48.148;11.542;2023-05-07T03:15:28;14.80;99.90
45012;DHT22;63444;48.148;11.542;2023-05-07T03:17:55;14.80;99.90
45012;DHT22;63444;48.148;11.542;2023-05-07T03:20:20;14.80;99.90
45012;DHT22;63444;48.148;11.542;2023-05-07T03:22:46;14.80;99.90
45012;DHT22;63444;48.148;11.542;2023-05-07T03:25:12;14.80;99.90
45012;DHT22;63444;48.148;11.542;2023-05-07T03:27:39;14.80;99.90
45012;DHT22;63444;48.148;11.542;2023-05-07T03:30:05;14.80;99.90
45012;DHT22;63444;48.148;11.542;2023-05-07T03:32:32;14.70;99.90
45012;DHT22;63444;48.148;11.542;2023-05-07T03:34:57;14.80;99.90
45012;DHT22;63444;48.148;11.542;2023-05-07T03:37:23;14.70;99.90
45012;DHT22;63444;48.148;11.542;2023-05-07T03:39:49;14.70;99.90
45012;DHT22;63444;48.148;11.542;2023-05-07T03:42:15;14.70;99.90
45012;DHT22;63444;48.148;11.542;2023-05-07T03:44:40;14.70;99.90
45012;DHT22;63444;48.148;11.542;2023-05-07T03:47:06;14.70;99.90
45012;DHT22;63444;48.148;11.542;2023-05-07T03:49:31;14.70;99.90
45012;DHT22;63444;48.148;11.542;2023-05-07T03:51:57;14.60;99.90
45012;DHT22;63444;48.148;11.542;2023-05-07T03:54:22;14.70;99.90
45012;DHT22;63444;48.148;11.542;2023-05-07T03:56:48;14.70;99.90
45012;DHT22;63444;48.148;11.542;2023-05-07T03:59:14;14.70;99.90
45012;DHT22;63444;48.148;11.542;2023-05-07T04:01:39;14.60;99.90
45012;DHT22;63444;48.148;11.542;2023-05-07T04:04:05;14.70;99.90
45012;DHT22;63444;48.148;11.542;2023-05-07T04:06:31;14.70;99.90
45012;DHT22;63444;48.148;11.542;2023-05-07T04:08:57;14.70;99.90
45012;DHT22;63444;48.148;11.542;2023-05-07T04:11:23;14.50;99.90
45012;DHT22;63444;48.148;11.542;2023-05-07T04:13:48;14.70;99.90
45012;DHT22;63444;48.148;11.542;2023-05-07T04:16:14;14.50;99.90
45012;DHT22;63444;48.148;11.542;2023-05-07T04:18:40;14.60;99.90
45012;DHT22;63444;48.148;11.542;2023-05-07T04:21:06;14.50;99.90
45012;DHT22;63444;48.148;11.542;2023-05-07T04:23:38;14.60;99.90
45012;DHT22;63444;48.148;11.542;2023-05-07T04:26:04;14.50;99.90
45012;DHT22;63444;48.148;11.542;2023-05-07T04:28:29;14.60;99.90
45012;DHT22;63444;48.148;11.542;2023-05-07T04:30:55;14.50;99.90
45012;DHT22;63444;48.148;11.542;2023-05-07T04:33:21;14.50;99.90
45012;DHT22;63444;48.148;11.542;2023-05-07T04:35:46;14.60;99.90
45012;DHT22;63444;48.148;11.542;2023-05-07T04:38:12;14.60;99.90
45012;DHT22;63444;48.148;11.542;2023-05-07T04:40:37;14.60;99.90
45012;DHT22;63444;48.148;11.542;2023-05-07T04:43:04;14.60;99.90
45012;DHT22;63444;48.148;11.542;2023-05-07T04:45:29;14.70;99.90
45012;DHT22;63444;48.148;11.542;2023-05-07T04:47:55;14.60;99.90
45012;DHT22;63444;48.148;11.542;2023-05-07T04:50:21;14.60;99.90
45012;DHT22;63444;48.148;11.542;2023-05-07T04:52:48;14.60;99.90
45012;DHT22;63444;48.148;11.542;2023-05-07T04:55:14;14.50;99.90
45012;DHT22;63444;48.148;11.542;2023-05-07T04:57:40;14.60;99.90
45012;DHT22;63444;48.148;11.542;2023-05-07T05:00:07;14.70;99.90
45012;DHT22;63444;48.148;11.542;2023-05-07T05:02:36;14.70;99.90
45012;DHT22;63444;48.148;11.542;2023-05-07T05:05:01;14.70;99.90
45012;DHT22;63444;48.148;11.542;2023-05-07T05:07:27;14.60;99.90
45012;DHT22;63444;48.148;11.542;2023-05-07T05:09:54;14.60;99.90
45012;DHT22;63444;48.148;11.542;2023-05-07T05:12:20;14.60;99.90
45012;DHT22;63444;48.148;11.542;2023-05-07T05:14:45;14.60;99.90
45012;DHT22;63444;48.148;11.542;2023-05-07T05:17:11;14.60;99.90
45012;DHT22;63444;48.148;11.542;2023-05-07T05:19:36;14.70;99.90
45012;DHT22;63444;48.148;11.542;2023-05-07T05:22:02;14.70;99.90
45012;DHT22;63444;48.148;11.542;2023-05-07T05:24:29;14.60;99.90
45012;DHT22;63444;48.148;11.542;2023-05-07T05:26:55;14.90;99.90
45012;DHT22;63444;48.148;11.542;2023-05-07T05:29:21;14.80;99.90
45012;DHT22;63444;48.148;11.542;2023-05-07T05:31:46;14.80;99.90
45012;DHT22;63444;48.148;11.542;2023-05-07T05:34:12;14.80;99.90
45012;DHT22;63444;48.148;11.542;2023-05-07T05:36:38;15.00;99.90
45012;DHT22;63444;48.148;11.542;2023-05-07T05:39:04;14.90;99.90
45012;DHT22;63444;48.148;11.542;2023-05-07T05:41:29;14.90;99.90
45012;DHT22;63444;48.148;11.542;2023-05-07T05:43:55;15.00;99.90
45012;DHT22;63444;48.148;11.542;2023-05-07T05:46:21;15.00;99.90
45012;DHT22;63444;48.148;11.542;2023-05-07T05:48:47;15.10;99.90
45012;DHT22;63444;48.148;11.542;2023-05-07T05:51:12;15.20;99.90
45012;DHT22;63444;48.148;11.542;2023-05-07T05:53:38;15.30;99.90
45012;DHT22;63444;48.148;11.542;2023-05-07T05:56:04;15.50;99.90
45012;DHT22;63444;48.148;11.542;2023-05-07T05:58:30;15.60;99.90
45012;DHT22;63444;48.148;11.542;2023-05-07T06:00:56;15.80;99.90
45012;DHT22;63444;48.148;11.542;2023-05-07T06:03:23;16.00;99.90
45012;DHT22;63444;48.148;11.542;2023-05-07T06:05:48;16.10;99.90
45012;DHT22;63444;48.148;11.542;2023-05-07T06:08:14;16.30;99.90
45012;DHT22;63444;48.148;11.542;2023-05-07T06:10:40;16.40;99.90
45012;DHT22;63444;48.148;11.542;2023-05-07T06:13:05;16.50;99.90
45012;DHT22;63444;48.148;11.542;2023-05-07T06:15:31;16.70;99.90
45012;DHT22;63444;48.148;11.542;2023-05-07T06:17:56;16.80;99.90
45012;DHT22;63444;48.148;11.542;2023-05-07T06:20:23;17.00;99.90
45012;DHT22;63444;48.148;11.542;2023-05-07T06:22:48;17.00;99.90
45012;DHT22;63444;48.148;11.542;2023-05-07T06:25:15;17.20;99.90
45012;DHT22;63444;48.148;11.542;2023-05-07T06:27:40;17.30;99.90
45012;DHT22;63444;48.148;11.542;2023-05-07T06:30:07;17.40;99.90
45012;DHT22;63444;48.148;11.542;2023-05-07T06:32:33;17.50;99.90
45012;DHT22;63444;48.148;11.542;2023-05-07T06:34:59;17.70;99.90
45012;DHT22;63444;48.148;11.542;2023-05-07T06:37:25;17.80;99.90
45012;DHT22;63444;48.148;11.542;2023-05-07T06:39:51;18.00;99.90
45012;DHT22;63444;48.148;11.542;2023-05-07T06:42:16;18.10;99.90
45012;DHT22;63444;48.148;11.542;2023-05-07T06:44:42;18.30;99.90
45012;DHT22;63444;48.148;11.542;2023-05-07T06:47:08;18.50;99.90
45012;DHT22;63444;48.148;11.542;2023-05-07T06:49:33;18.60;99.90
45012;DHT22;63444;48.148;11.542;2023-05-07T06:51:59;18.70;99.90
45012;DHT22;63444;48.148;11.542;2023-05-07T06:54:24;18.80;99.90
45012;DHT22;63444;48.148;11.542;2023-05-07T06:56:50;18.90;99.90
45012;DHT22;63444;48.148;11.542;2023-05-07T06:59:15;19.00;99.90
45012;DHT22;63444;48.148;11.542;2023-05-07T07:01:41;19.10;99.90
45012;DHT22;63444;48.148;11.542;2023-05-07T07:04:06;19.30;99.90
45012;DHT22;63444;48.148;11.542;2023-05-07T07:06:32;19.40;99.90
45012;DHT22;63444;48.148;11.542;2023-05-07T07:08:58;19.50;99.90
45012;DHT22;63444;48.148;11.542;2023-05-07T07:11:24;19.50;99.90
45012;DHT22;63444;48.148;11.542;2023-05-07T07:13:50;19.60;99.90
45012;DHT22;63444;48.148;11.542;2023-05-07T07:16:16;19.60;99.90
45012;DHT22;63444;48.148;11.542;2023-05-07T07:18:41;19.70;99.90
45012;DHT22;63444;48.148;11.542;2023-05-07T07:21:07;19.70;99.90
45012;DHT22;63444;48.148;11.542;2023-05-07T07:23:33;19.90;99.90
45012;DHT22;63444;48.148;11.542;2023-05-07T07:25:58;19.90;99.90
45012;DHT22;63444;48.148;11.542;2023-05-07T07:28:24;20.00;99.90
45012;DHT22;63444;48.148;11.542;2023-05-07T07:30:50;20.20;99.90
45012;DHT22;63444;48.148;11.542;2023-05-07T07:33:15;20.20;99.90
45012;DHT22;63444;48.148;11.542;2023-05-07T07:35:41;20.30;99.90
45012;DHT22;63444;48.148;11.542;2023-05-07T07:38:07;20.30;99.90
45012;DHT22;63444;48.148;11.542;2023-05-07T07:40:34;20.30;99.90
45012;DHT22;63444;48.148;11.542;2023-05-07T07:43:00;20.40;99.90
45012;DHT22;63444;48.148;11.542;2023-05-07T07:45:26;20.50;99.90
45012;DHT22;63444;48.148;11.542;2023-05-07T07:47:52;20.60;99.90
45012;DHT22;63444;48.148;11.542;2023-05-07T07:50:18;20.60;99.90
45012;DHT22;63444;48.148;11.542;2023-05-07T07:52:44;20.70;99.90
45012;DHT22;63444;48.148;11.542;2023-05-07T07:55:09;20.80;99.90
45012;DHT22;63444;48.148;11.542;2023-05-07T07:57:35;20.90;99.90
45012;DHT22;63444;48.148;11.542;2023-05-07T08:00:01;21.00;99.90
45012;DHT22;63444;48.148;11.542;2023-05-07T08:02:26;21.10;99.90
45012;DHT22;63444;48.148;11.542;2023-05-07T08:04:52;21.20;99.90
45012;DHT22;63444;48.148;11.542;2023-05-07T08:07:17;21.30;99.90
45012;DHT22;63444;48.148;11.542;2023-05-07T08:09:45;21.40;99.90
45012;DHT22;63444;48.148;11.542;2023-05-07T08:12:12;21.60;99.90
45012;DHT22;63444;48.148;11.542;2023-05-07T08:14:38;21.80;99.90
45012;DHT22;63444;48.148;11.542;2023-05-07T08:17:03;21.90;99.90
45012;DHT22;63444;48.148;11.542;2023-05-07T08:19:29;22.00;99.90
45012;DHT22;63444;48.148;11.542;2023-05-07T08:21:55;21.90;99.90
45012;DHT22;63444;48.148;11.542;2023-05-07T08:24:21;22.00;99.90
45012;DHT22;63444;48.148;11.542;2023-05-07T08:26:46;22.00;99.90
45012;DHT22;63444;48.148;11.542;2023-05-07T08:29:12;22.20;99.90
45012;DHT22;63444;48.148;11.542;2023-05-07T08:31:37;22.30;99.90
45012;DHT22;63444;48.148;11.542;2023-05-07T08:34:06;22.40;99.90
45012;DHT22;63444;48.148;11.542;2023-05-07T08:36:32;22.50;99.90
45012;DHT22;63444;48.148;11.542;2023-05-07T08:38:58;22.50;99.90
45012;DHT22;63444;48.148;11.542;2023-05-07T08:41:24;22.60;99.90
45012;DHT22;63444;48.148;11.542;2023-05-07T08:43:51;22.80;99.90
45012;DHT22;63444;48.148;11.542;2023-05-07T08:46:21;23.10;99.90
45012;DHT22;63444;48.148;11.542;2023-05-07T08:48:51;23.80;99.70
45012;DHT22;63444;48.148;11.542;2023-05-07T08:51:21;24.80;99.50
45012;DHT22;63444;48.148;11.542;2023-05-07T08:53:49;25.60;98.30
45012;DHT22;63444;48.148;11.542;2023-05-07T08:56:15;25.90;97.60
45012;DHT22;63444;48.148;11.542;2023-05-07T08:58:44;26.00;97.20
45012;DHT22;63444;48.148;11.542;2023-05-07T09:01:13;25.90;97.30
45012;DHT22;63444;48.148;11.542;2023-05-07T09:03:40;25.80;95.90
45012;DHT22;63444;48.148;11.542;2023-05-07T09:06:06;25.60;96.20
45012;DHT22;63444;48.148;11.542;2023-05-07T09:08:35;25.50;96.40
45012;DHT22;63444;48.148;11.542;2023-05-07T09:11:01;25.50;96.30
45012;DHT22;63444;48.148;11.542;2023-05-07T09:13:27;25.50;96.30
45012;DHT22;63444;48.148;11.542;2023-05-07T09:15:53;25.50;96.10
45012;DHT22;63444;48.148;11.542;2023-05-07T09:18:18;25.50;96.10
45012;DHT22;63444;48.148;11.542;2023-05-07T09:20:44;25.50;95.80
45012;DHT22;63444;48.148;11.542;2023-05-07T09:23:10;25.40;94.70
45012;DHT22;63444;48.148;11.542;2023-05-07T09:25:36;25.30;94.30
45012;DHT22;63444;48.148;11.542;2023-05-07T09:28:03;25.20;95.00
45012;DHT22;63444;48.148;11.542;2023-05-07T09:30:30;25.20;95.00
45012;DHT22;63444;48.148;11.542;2023-05-07T09:33:00;25.20;94.30
45012;DHT22;63444;48.148;11.542;2023-05-07T09:35:27;25.30;94.30
45012;DHT22;63444;48.148;11.542;2023-05-07T09:37:53;25.30;93.70
45012;DHT22;63444;48.148;11.542;2023-05-07T09:40:28;25.20;93.80
45012;DHT22;63444;48.148;11.542;2023-05-07T09:42:54;25.10;93.00
45012;DHT22;63444;48.148;11.542;2023-05-07T09:45:25;25.00;93.60
45012;DHT22;63444;48.148;11.542;2023-05-07T09:47:54;25.00;93.80
45012;DHT22;63444;48.148;11.542;2023-05-07T09:50:25;25.00;94.20
45012;DHT22;63444;48.148;11.542;2023-05-07T09:52:52;25.10;94.40
45012;DHT22;63444;48.148;11.542;2023-05-07T09:55:18;25.10;94.40
45012;DHT22;63444;48.148;11.542;2023-05-07T09:57:45;25.20;94.20
45012;DHT22;63444;48.148;11.542;2023-05-07T10:00:12;25.30;93.30
45012;DHT22;63444;48.148;11.542;2023-05-07T10:02:39;25.30;93.00
45012;DHT22;63444;48.148;11.542;2023-05-07T10:05:12;25.40;92.70
45012;DHT22;63444;48.148;11.542;2023-05-07T10:07:39;25.40;92.40
45012;DHT22;63444;48.148;11.542;2023-05-07T10:10:06;25.40;91.70
45012;DHT22;63444;48.148;11.542;2023-05-07T10:12:32;25.40;91.70
45012;DHT22;63444;48.148;11.542;2023-05-07T10:15:10;25.30;92.40
45012;DHT22;63444;48.148;11.542;2023-05-07T10:17:37;25.30;92.20
45012;DHT22;63444;48.148;11.542;2023-05-07T10:20:05;25.30;91.30
45012;DHT22;63444;48.148;11.542;2023-05-07T10:22:37;25.20;92.10
45012;DHT22;63444;48.148;11.542;2023-05-07T10:25:06;25.20;92.10
45012;DHT22;63444;48.148;11.542;2023-05-07T10:27:35;25.20;92.60
45012;DHT22;63444;48.148;11.542;2023-05-07T10:32:50;25.30;92.00
45012;DHT22;63444;48.148;11.542;2023-05-07T10:35:26;25.30;91.40
45012;DHT22;63444;48.148;11.542;2023-05-07T10:37:52;25.30;91.60
45012;DHT22;63444;48.148;11.542;2023-05-07T10:40:20;25.30;91.90
45012;DHT22;63444;48.148;11.542;2023-05-07T10:43:13;25.30;91.80
45012;DHT22;63444;48.148;11.542;2023-05-07T10:45:38;25.40;90.90
45012;DHT22;63444;48.148;11.542;2023-05-07T10:48:07;25.30;90.80
45012;DHT22;63444;48.148;11.542;2023-05-07T10:50:34;25.30;90.60
45012;DHT22;63444;48.148;11.542;2023-05-07T10:55:47;25.40;90.40
45012;DHT22;63444;48.148;11.542;2023-05-07T10:58:25;25.50;89.80
45012;DHT22;63444;48.148;11.542;2023-05-07T11:00:59;25.60;90.30
45012;DHT22;63444;48.148;11.542;2023-05-07T11:03:26;25.90;90.40
45012;DHT22;63444;48.148;11.542;2023-05-07T11:06:12;26.10;90.20
45012;DHT22;63444;48.148;11.542;2023-05-07T11:08:57;26.20;90.20
45012;DHT22;63444;48.148;11.542;2023-05-07T11:11:46;26.20;89.90
45012;DHT22;63444;48.148;11.542;2023-05-07T11:14:14;26.20;89.50
45012;DHT22;63444;48.148;11.542;2023-05-07T11:16:41;26.20;90.20
45012;DHT22;63444;48.148;11.542;2023-05-07T11:19:07;26.30;90.50
45012;DHT22;63444;48.148;11.542;2023-05-07T11:21:40;26.20;90.40
45012;DHT22;63444;48.148;11.542;2023-05-07T11:24:08;26.10;90.50
45012;DHT22;63444;48.148;11.542;2023-05-07T11:26:45;26.20;90.60
45012;DHT22;63444;48.148;11.542;2023-05-07T11:29:13;26.20;90.40
45012;DHT22;63444;48.148;11.542;2023-05-07T11:31:39;26.30;90.20
45012;DHT22;63444;48.148;11.542;2023-05-07T11:34:05;26.50;89.50
45012;DHT22;63444;48.148;11.542;2023-05-07T11:36:32;26.50;89.30
45012;DHT22;63444;48.148;11.542;2023-05-07T11:38:58;26.60;89.10
45012;DHT22;63444;48.148;11.542;2023-05-07T11:41:36;26.70;88.20
45012;DHT22;63444;48.148;11.542;2023-05-07T11:44:02;26.80;88.00
45012;DHT22;63444;48.148;11.542;2023-05-07T11:46:28;26.90;86.70
45012;DHT22;63444;48.148;11.542;2023-05-07T11:48:55;26.90;85.70
45012;DHT22;63444;48.148;11.542;2023-05-07T11:51:24;26.70;85.50
45012;DHT22;63444;48.148;11.542;2023-05-07T11:53:52;26.60;86.60
45012;DHT22;63444;48.148;11.542;2023-05-07T11:56:18;26.60;86.60
45012;DHT22;63444;48.148;11.542;2023-05-07T11:58:45;26.70;86.20
45012;DHT22;63444;48.148;11.542;2023-05-07T12:01:12;26.70;84.60
45012;DHT22;63444;48.148;11.542;2023-05-07T12:03:42;26.80;84.40
45012;DHT22;63444;48.148;11.542;2023-05-07T12:06:08;26.80;85.30
45012;DHT22;63444;48.148;11.542;2023-05-07T12:08:37;26.70;85.30
45012;DHT22;63444;48.148;11.542;2023-05-07T12:11:03;26.70;84.10
45012;DHT22;63444;48.148;11.542;2023-05-07T12:13:32;26.70;84.50
45012;DHT22;63444;48.148;11.542;2023-05-07T12:15:58;26.60;84.40
45012;DHT22;63444;48.148;11.542;2023-05-07T12:18:23;26.50;83.80
45012;DHT22;63444;48.148;11.542;2023-05-07T12:20:50;26.40;84.00
45012;DHT22;63444;48.148;11.542;2023-05-07T12:23:16;26.40;82.40
45012;DHT22;63444;48.148;11.542;2023-05-07T12:25:43;26.30;83.00
45012;DHT22;63444;48.148;11.542;2023-05-07T12:28:16;26.30;84.00
45012;DHT22;63444;48.148;11.542;2023-05-07T12:30:43;26.20;84.10
45012;DHT22;63444;48.148;11.542;2023-05-07T12:33:09;26.20;84.10
45012;DHT22;63444;48.148;11.542;2023-05-07T12:35:40;26.30;82.30
45012;DHT22;63444;48.148;11.542;2023-05-07T12:38:14;26.20;81.80
45012;DHT22;63444;48.148;11.542;2023-05-07T12:40:44;26.20;82.50
45012;DHT22;63444;48.148;11.542;2023-05-07T12:43:26;26.10;81.90
45012;DHT22;63444;48.148;11.542;2023-05-07T12:45:54;26.10;82.10
45012;DHT22;63444;48.148;11.542;2023-05-07T12:48:21;26.00;82.90
45012;DHT22;63444;48.148;11.542;2023-05-07T12:50:50;26.00;82.90
45012;DHT22;63444;48.148;11.542;2023-05-07T12:53:16;26.00;82.20
45012;DHT22;63444;48.148;11.542;2023-05-07T12:55:47;25.90;81.90
45012;DHT22;63444;48.148;11.542;2023-05-07T12:58:22;25.80;81.40
45012;DHT22;63444;48.148;11.542;2023-05-07T13:00:49;25.80;80.70
45012;DHT22;63444;48.148;11.542;2023-05-07T13:03:35;25.80;81.00
45012;DHT22;63444;48.148;11.542;2023-05-07T13:06:06;25.90;81.80
45012;DHT22;63444;48.148;11.542;2023-05-07T13:08:35;25.90;81.50
45012;DHT22;63444;48.148;11.542;2023-05-07T13:11:02;25.90;81.50
45012;DHT22;63444;48.148;11.542;2023-05-07T13:13:32;26.00;81.20
45012;DHT22;63444;48.148;11.542;2023-05-07T13:15:58;25.90;80.10
45012;DHT22;63444;48.148;11.542;2023-05-07T13:18:28;25.80;79.40
45012;DHT22;63444;48.148;11.542;2023-05-07T13:20:54;25.80;80.20
45012;DHT22;63444;48.148;11.542;2023-05-07T13:23:22;25.80;81.00
45012;DHT22;63444;48.148;11.542;2023-05-07T13:25:48;25.70;80.90
45012;DHT22;63444;48.148;11.542;2023-05-07T13:28:14;25.70;80.50
45012;DHT22;63444;48.148;11.542;2023-05-07T13:30:40;25.70;80.10
45012;DHT22;63444;48.148;11.542;2023-05-07T13:33:06;25.50;80.40
45012;DHT22;63444;48.148;11.542;2023-05-07T13:35:32;25.50;81.00
45012;DHT22;63444;48.148;11.542;2023-05-07T13:37:58;25.40;80.80
45012;DHT22;63444;48.148;11.542;2023-05-07T13:40:23;25.30;80.80
45012;DHT22;63444;48.148;11.542;2023-05-07T13:42:49;25.40;79.40
45012;DHT22;63444;48.148;11.542;2023-05-07T13:45:17;25.30;79.30
45012;DHT22;63444;48.148;11.542;2023-05-07T13:47:43;25.30;80.50
45012;DHT22;63444;48.148;11.542;2023-05-07T13:50:10;25.30;79.20
45012;DHT22;63444;48.148;11.542;2023-05-07T13:52:40;25.30;79.30
45012;DHT22;63444;48.148;11.542;2023-05-07T13:55:07;25.30;79.50
45012;DHT22;63444;48.148;11.542;2023-05-07T13:57:33;25.30;79.80
45012;DHT22;63444;48.148;11.542;2023-05-07T13:59:58;25.30;79.70
45012;DHT22;63444;48.148;11.542;2023-05-07T14:02:24;25.30;79.30
45012;DHT22;63444;48.148;11.542;2023-05-07T14:04:49;25.30;79.90
45012;DHT22;63444;48.148;11.542;2023-05-07T14:07:15;25.30;80.20
45012;DHT22;63444;48.148;11.542;2023-05-07T14:09:40;25.40;80.20
45012;DHT22;63444;48.148;11.542;2023-05-07T14:12:06;25.40;80.00
45012;DHT22;63444;48.148;11.542;2023-05-07T14:14:32;25.40;79.80
45012;DHT22;63444;48.148;11.542;2023-05-07T14:16:57;25.40;79.40
45012;DHT22;63444;48.148;11.542;2023-05-07T14:19:23;25.30;79.60
45012;DHT22;63444;48.148;11.542;2023-05-07T14:21:49;25.20;79.50
45012;DHT22;63444;48.148;11.542;2023-05-07T14:24:14;25.20;79.60
45012;DHT22;63444;48.148;11.542;2023-05-07T14:26:40;25.20;79.80
45012;DHT22;63444;48.148;11.542;2023-05-07T14:29:05;25.20;80.00
45012;DHT22;63444;48.148;11.542;2023-05-07T14:31:31;25.20;80.00
45012;DHT22;63444;48.148;11.542;2023-05-07T14:33:58;25.20;80.10
45012;DHT22;63444;48.148;11.542;2023-05-07T14:36:24;25.20;80.10
45012;DHT22;63444;48.148;11.542;2023-05-07T14:38:52;25.10;80.00
45012;DHT22;63444;48.148;11.542;2023-05-07T14:41:18;25.00;80.70
45012;DHT22;63444;48.148;11.542;2023-05-07T14:43:43;25.00;81.30
45012;DHT22;63444;48.148;11.542;2023-05-07T14:46:18;25.00;81.90
45012;DHT22;63444;48.148;11.542;2023-05-07T14:48:45;24.90;81.90
45012;DHT22;63444;48.148;11.542;2023-05-07T14:51:12;24.80;82.50
45012;DHT22;63444;48.148;11.542;2023-05-07T14:53:37;24.80;83.00
45012;DHT22;63444;48.148;11.542;2023-05-07T14:56:03;24.80;83.30
45012;DHT22;63444;48.148;11.542;2023-05-07T14:58:29;24.80;83.40
45012;DHT22;63444;48.148;11.542;2023-05-07T15:00:55;24.80;83.70
45012;DHT22;63444;48.148;11.542;2023-05-07T15:03:21;24.70;83.80
45012;DHT22;63444;48.148;11.542;2023-05-07T15:05:47;24.70;84.40
45012;DHT22;63444;48.148;11.542;2023-05-07T15:08:13;24.60;84.20
45012;DHT22;63444;48.148;11.542;2023-05-07T15:10:38;24.80;84.50
45012;DHT22;63444;48.148;11.542;2023-05-07T15:13:10;24.60;84.40
45012;DHT22;63444;48.148;11.542;2023-05-07T15:15:36;24.60;84.70
45012;DHT22;63444;48.148;11.542;2023-05-07T15:18:02;24.60;85.00